sensor_id;sensor_type;location;lat;lon;timestamp;P1;durP1;ratioP1;P2;durP2;ratioP2
34711;SDS011;20941;42.408;25.634;2023-10-31T00:01:24;10.10;;;5.50;;
34711;SDS011;20941;42.408;25.634;2023-10-31T00:03:49;8.80;;;5.28;;
34711;SDS011;20941;42.408;25.634;2023-10-31T00:06:14;8.57;;;5.18;;
34711;SDS011;20941;42.408;25.634;2023-10-31T00:08:41;10.63;;;5.18;;
34711;SDS011;20941;42.408;25.634;2023-10-31T00:11:06;14.95;;;5.70;;
34711;SDS011;20941;42.408;25.634;2023-10-31T00:13:32;13.52;;;5.03;;
34711;SDS011;20941;42.408;25.634;2023-10-31T00:15:57;14.05;;;5.93;;
34711;SDS011;20941;42.408;25.634;2023-10-31T00:18:22;10.55;;;5.20;;
34711;SDS011;20941;42.408;25.634;2023-10-31T00:20:48;10.65;;;5.35;;
34711;SDS011;20941;42.408;25.634;2023-10-31T00:23:13;9.45;;;5.85;;
34711;SDS011;20941;42.408;25.634;2023-10-31T00:25:39;9.55;;;5.68;;
34711;SDS011;20941;42.408;25.634;2023-10-31T00:28:04;18.90;;;6.45;;
34711;SDS011;20941;42.408;25.634;2023-10-31T00:30:29;13.20;;;5.68;;
34711;SDS011;20941;42.408;25.634;2023-10-31T00:32:55;10.25;;;6.50;;
34711;SDS011;20941;42.408;25.634;2023-10-31T00:35:20;12.23;;;5.82;;
34711;SDS011;20941;42.408;25.634;2023-10-31T00:37:45;13.75;;;5.80;;
34711;SDS011;20941;42.408;25.634;2023-10-31T00:40:11;11.55;;;5.95;;
34711;SDS011;20941;42.408;25.634;2023-10-31T00:42:37;10.68;;;5.53;;
34711;SDS011;20941;42.408;25.634;2023-10-31T00:45:02;20.85;;;6.45;;
34711;SDS011;20941;42.408;25.634;2023-10-31T00:47:28;13.30;;;6.07;;
34711;SDS011;20941;42.408;25.634;2023-10-31T00:49:53;11.07;;;5.70;;
34711;SDS011;20941;42.408;25.634;2023-10-31T00:52:18;10.73;;;6.07;;
34711;SDS011;20941;42.408;25.634;2023-10-31T00:54:44;17.67;;;6.63;;
34711;SDS011;20941;42.408;25.634;2023-10-31T00:57:09;11.30;;;5.82;;
34711;SDS011;20941;42.408;25.634;2023-10-31T00:59:34;12.13;;;5.75;;
34711;SDS011;20941;42.408;25.634;2023-10-31T01:02:00;14.52;;;6.65;;
34711;SDS011;20941;42.408;25.634;2023-10-31T01:04:25;14.98;;;6.28;;
34711;SDS011;20941;42.408;25.634;2023-10-31T01:06:51;11.07;;;6.88;;
34711;SDS011;20941;42.408;25.634;2023-10-31T01:09:17;15.65;;;6.95;;
34711;SDS011;20941;42.408;25.634;2023-10-31T01:11:43;15.05;;;6.57;;
34711;SDS011;20941;42.408;25.634;2023-10-31T01:14:08;15.73;;;7.05;;
34711;SDS011;20941;42.408;25.634;2023-10-31T01:16:33;11.63;;;6.82;;
34711;SDS011;20941;42.408;25.634;2023-10-31T01:18:59;13.30;;;6.60;;
34711;SDS011;20941;42.408;25.634;2023-10-31T01:21:24;15.57;;;7.00;;
34711;SDS011;20941;42.408;25.634;2023-10-31T01:23:49;12.95;;;6.93;;
34711;SDS011;20941;42.408;25.634;2023-10-31T01:26:15;18.77;;;6.90;;
34711;SDS011;20941;42.408;25.634;2023-10-31T01:28:40;17.35;;;7.68;;
34711;SDS011;20941;42.408;25.634;2023-10-31T01:31:05;18.55;;;7.60;;
34711;SDS011;20941;42.408;25.634;2023-10-31T01:33:31;17.20;;;6.95;;
34711;SDS011;20941;42.408;25.634;2023-10-31T01:35:57;12.88;;;7.03;;
34711;SDS011;20941;42.408;25.634;2023-10-31T01:38:23;12.32;;;7.38;;
34711;SDS011;20941;42.408;25.634;2023-10-31T01:40:48;16.33;;;7.55;;
34711;SDS011;20941;42.408;25.634;2023-10-31T01:43:28;16.13;;;7.47;;
34711;SDS011;20941;42.408;25.634;2023-10-31T01:45:53;16.98;;;6.30;;
34711;SDS011;20941;42.408;25.634;2023-10-31T01:48:19;13.20;;;7.10;;
34711;SDS011;20941;42.408;25.634;2023-10-31T01:50:44;13.90;;;6.72;;
34711;SDS011;20941;42.408;25.634;2023-10-31T01:53:09;16.17;;;7.38;;
34711;SDS011;20941;42.408;25.634;2023-10-31T01:55:35;13.35;;;7.53;;
34711;SDS011;20941;42.408;25.634;2023-10-31T01:58:00;17.60;;;7.40;;
34711;SDS011;20941;42.408;25.634;2023-10-31T02:00:26;14.07;;;7.18;;
34711;SDS011;20941;42.408;25.634;2023-10-31T02:02:51;15.52;;;7.75;;
34711;SDS011;20941;42.408;25.634;2023-10-31T02:05:18;16.67;;;7.90;;
34711;SDS011;20941;42.408;25.634;2023-10-31T02:07:44;11.60;;;7.13;;
34711;SDS011;20941;42.408;25.634;2023-10-31T02:10:09;12.95;;;7.15;;
34711;SDS011;20941;42.408;25.634;2023-10-31T02:12:35;16.13;;;8.10;;
34711;SDS011;20941;42.408;25.634;2023-10-31T02:15:01;13.52;;;6.95;;
34711;SDS011;20941;42.408;25.634;2023-10-31T02:17:26;12.00;;;7.22;;
34711;SDS011;20941;42.408;25.634;2023-10-31T02:19:52;12.52;;;7.45;;
34711;SDS011;20941;42.408;25.634;2023-10-31T02:22:17;13.27;;;7.35;;
34711;SDS011;20941;42.408;25.634;2023-10-31T02:24:43;12.75;;;7.38;;
34711;SDS011;20941;42.408;25.634;2023-10-31T02:27:08;17.80;;;7.78;;
34711;SDS011;20941;42.408;25.634;2023-10-31T02:29:33;14.63;;;7.55;;
34711;SDS011;20941;42.408;25.634;2023-10-31T02:31:59;14.98;;;8.05;;
34711;SDS011;20941;42.408;25.634;2023-10-31T02:34:24;17.65;;;7.15;;
34711;SDS011;20941;42.408;25.634;2023-10-31T02:36:51;11.65;;;6.85;;
34711;SDS011;20941;42.408;25.634;2023-10-31T02:39:16;15.75;;;7.75;;
34711;SDS011;20941;42.408;25.634;2023-10-31T02:41:42;15.27;;;8.25;;
34711;SDS011;20941;42.408;25.634;2023-10-31T02:44:07;17.38;;;7.68;;
34711;SDS011;20941;42.408;25.634;2023-10-31T02:46:34;15.43;;;7.93;;
34711;SDS011;20941;42.408;25.634;2023-10-31T02:49:02;17.85;;;8.18;;
34711;SDS011;20941;42.408;25.634;2023-10-31T02:51:27;19.02;;;8.27;;
34711;SDS011;20941;42.408;25.634;2023-10-31T02:53:53;21.42;;;8.25;;
34711;SDS011;20941;42.408;25.634;2023-10-31T02:56:18;16.75;;;8.43;;
34711;SDS011;20941;42.408;25.634;2023-10-31T02:58:44;14.20;;;8.52;;
34711;SDS011;20941;42.408;25.634;2023-10-31T03:01:09;13.52;;;8.18;;
34711;SDS011;20941;42.408;25.634;2023-10-31T03:03:34;14.50;;;8.20;;
34711;SDS011;20941;42.408;25.634;2023-10-31T03:06:00;15.02;;;8.52;;
34711;SDS011;20941;42.408;25.634;2023-10-31T03:08:25;18.92;;;8.13;;
34711;SDS011;20941;42.408;25.634;2023-10-31T03:10:50;19.50;;;8.30;;
34711;SDS011;20941;42.408;25.634;2023-10-31T03:13:17;21.27;;;9.45;;
34711;SDS011;20941;42.408;25.634;2023-10-31T03:15:43;20.10;;;9.00;;
34711;SDS011;20941;42.408;25.634;2023-10-31T03:18:08;16.10;;;9.80;;
34711;SDS011;20941;42.408;25.634;2023-10-31T03:20:33;19.33;;;9.27;;
34711;SDS011;20941;42.408;25.634;2023-10-31T03:22:59;20.98;;;9.93;;
34711;SDS011;20941;42.408;25.634;2023-10-31T03:25:24;18.73;;;10.05;;
34711;SDS011;20941;42.408;25.634;2023-10-31T03:27:49;16.38;;;9.20;;
34711;SDS011;20941;42.408;25.634;2023-10-31T03:30:15;18.02;;;9.75;;
34711;SDS011;20941;42.408;25.634;2023-10-31T03:32:40;22.33;;;9.65;;
34711;SDS011;20941;42.408;25.634;2023-10-31T03:35:05;16.30;;;9.13;;
34711;SDS011;20941;42.408;25.634;2023-10-31T03:37:31;19.45;;;9.75;;
34711;SDS011;20941;42.408;25.634;2023-10-31T03:39:56;19.08;;;10.70;;
34711;SDS011;20941;42.408;25.634;2023-10-31T03:42:21;21.40;;;11.60;;
34711;SDS011;20941;42.408;25.634;2023-10-31T03:44:47;21.80;;;11.48;;
34711;SDS011;20941;42.408;25.634;2023-10-31T03:47:12;21.65;;;12.40;;
34711;SDS011;20941;42.408;25.634;2023-10-31T03:49:39;24.48;;;11.73;;
34711;SDS011;20941;42.408;25.634;2023-10-31T03:52:04;20.60;;;10.75;;
34711;SDS011;20941;42.408;25.634;2023-10-31T03:54:29;21.13;;;10.32;;
34711;SDS011;20941;42.408;25.634;2023-10-31T03:56:55;18.42;;;9.88;;
34711;SDS011;20941;42.408;25.634;2023-10-31T03:59:20;20.60;;;9.98;;
34711;SDS011;20941;42.408;25.634;2023-10-31T04:01:45;19.98;;;9.60;;
34711;SDS011;20941;42.408;25.634;2023-10-31T04:04:11;20.17;;;10.30;;
34711;SDS011;20941;42.408;25.634;2023-10-31T04:06:36;24.65;;;10.90;;
34711;SDS011;20941;42.408;25.634;2023-10-31T04:09:05;18.17;;;9.95;;
34711;SDS011;20941;42.408;25.634;2023-10-31T04:11:30;20.63;;;10.75;;
34711;SDS011;20941;42.408;25.634;2023-10-31T04:13:55;20.33;;;9.77;;
34711;SDS011;20941;42.408;25.634;2023-10-31T04:16:20;24.25;;;10.85;;
34711;SDS011;20941;42.408;25.634;2023-10-31T04:18:46;20.98;;;11.32;;
34711;SDS011;20941;42.408;25.634;2023-10-31T04:21:11;20.15;;;11.30;;
34711;SDS011;20941;42.408;25.634;2023-10-31T04:23:36;19.90;;;11.32;;
34711;SDS011;20941;42.408;25.634;2023-10-31T04:26:02;27.08;;;10.98;;
34711;SDS011;20941;42.408;25.634;2023-10-31T04:28:27;18.00;;;9.80;;
34711;SDS011;20941;42.408;25.634;2023-10-31T04:30:53;20.00;;;9.88;;
34711;SDS011;20941;42.408;25.634;2023-10-31T04:33:18;18.30;;;10.32;;
34711;SDS011;20941;42.408;25.634;2023-10-31T04:35:43;19.13;;;9.60;;
34711;SDS011;20941;42.408;25.634;2023-10-31T04:38:27;26.02;;;9.80;;
34711;SDS011;20941;42.408;25.634;2023-10-31T04:40:53;20.73;;;11.25;;
34711;SDS011;20941;42.408;25.634;2023-10-31T04:43:18;57.75;;;26.65;;
34711;SDS011;20941;42.408;25.634;2023-10-31T04:45:44;31.70;;;13.70;;
34711;SDS011;20941;42.408;25.634;2023-10-31T04:48:09;28.98;;;12.02;;
34711;SDS011;20941;42.408;25.634;2023-10-31T04:50:34;47.72;;;13.75;;
34711;SDS011;20941;42.408;25.634;2023-10-31T04:52:59;46.30;;;13.57;;
34711;SDS011;20941;42.408;25.634;2023-10-31T04:55:25;48.10;;;16.10;;
34711;SDS011;20941;42.408;25.634;2023-10-31T04:57:50;42.50;;;18.23;;
34711;SDS011;20941;42.408;25.634;2023-10-31T05:00:16;43.28;;;15.68;;
34711;SDS011;20941;42.408;25.634;2023-10-31T05:02:41;35.00;;;14.88;;
34711;SDS011;20941;42.408;25.634;2023-10-31T05:05:07;24.98;;;10.77;;
34711;SDS011;20941;42.408;25.634;2023-10-31T05:07:32;20.40;;;10.30;;
34711;SDS011;20941;42.408;25.634;2023-10-31T05:09:57;45.03;;;18.45;;
34711;SDS011;20941;42.408;25.634;2023-10-31T05:12:23;46.50;;;16.77;;
34711;SDS011;20941;42.408;25.634;2023-10-31T05:14:49;51.72;;;19.52;;
34711;SDS011;20941;42.408;25.634;2023-10-31T05:17:14;37.40;;;16.10;;
34711;SDS011;20941;42.408;25.634;2023-10-31T05:19:40;37.10;;;14.27;;
34711;SDS011;20941;42.408;25.634;2023-10-31T05:22:05;24.98;;;11.70;;
34711;SDS011;20941;42.408;25.634;2023-10-31T05:24:30;30.13;;;12.93;;
34711;SDS011;20941;42.408;25.634;2023-10-31T05:26:57;30.20;;;12.95;;
34711;SDS011;20941;42.408;25.634;2023-10-31T05:29:22;34.58;;;12.55;;
34711;SDS011;20941;42.408;25.634;2023-10-31T05:31:48;25.63;;;11.60;;
34711;SDS011;20941;42.408;25.634;2023-10-31T05:34:13;31.65;;;12.05;;
34711;SDS011;20941;42.408;25.634;2023-10-31T05:36:39;24.55;;;11.60;;
34711;SDS011;20941;42.408;25.634;2023-10-31T05:39:04;33.35;;;13.63;;
34711;SDS011;20941;42.408;25.634;2023-10-31T05:41:30;33.22;;;14.15;;
34711;SDS011;20941;42.408;25.634;2023-10-31T05:43:58;33.72;;;13.80;;
34711;SDS011;20941;42.408;25.634;2023-10-31T05:46:23;33.78;;;13.70;;
34711;SDS011;20941;42.408;25.634;2023-10-31T05:48:49;34.50;;;12.73;;
34711;SDS011;20941;42.408;25.634;2023-10-31T05:51:15;38.90;;;13.85;;
34711;SDS011;20941;42.408;25.634;2023-10-31T05:53:42;32.10;;;12.27;;
34711;SDS011;20941;42.408;25.634;2023-10-31T05:56:07;30.08;;;12.40;;
34711;SDS011;20941;42.408;25.634;2023-10-31T05:58:33;38.45;;;12.98;;
34711;SDS011;20941;42.408;25.634;2023-10-31T06:00:58;29.73;;;13.30;;
34711;SDS011;20941;42.408;25.634;2023-10-31T06:03:24;33.72;;;13.82;;
34711;SDS011;20941;42.408;25.634;2023-10-31T06:05:49;32.30;;;15.60;;
34711;SDS011;20941;42.408;25.634;2023-10-31T06:08:14;39.38;;;15.23;;
34711;SDS011;20941;42.408;25.634;2023-10-31T06:10:40;32.55;;;13.05;;
34711;SDS011;20941;42.408;25.634;2023-10-31T06:13:05;34.50;;;13.95;;
34711;SDS011;20941;42.408;25.634;2023-10-31T06:15:30;43.67;;;16.00;;
34711;SDS011;20941;42.408;25.634;2023-10-31T06:17:56;35.65;;;15.68;;
34711;SDS011;20941;42.408;25.634;2023-10-31T06:20:21;33.65;;;15.35;;
34711;SDS011;20941;42.408;25.634;2023-10-31T06:22:47;37.17;;;14.65;;
34711;SDS011;20941;42.408;25.634;2023-10-31T06:25:12;42.40;;;14.98;;
34711;SDS011;20941;42.408;25.634;2023-10-31T06:27:37;38.38;;;13.07;;
34711;SDS011;20941;42.408;25.634;2023-10-31T06:30:03;33.97;;;12.95;;
34711;SDS011;20941;42.408;25.634;2023-10-31T06:32:28;32.33;;;13.45;;
34711;SDS011;20941;42.408;25.634;2023-10-31T06:34:54;35.22;;;14.13;;
34711;SDS011;20941;42.408;25.634;2023-10-31T06:37:19;29.95;;;14.10;;
34711;SDS011;20941;42.408;25.634;2023-10-31T06:39:44;44.00;;;15.38;;
34711;SDS011;20941;42.408;25.634;2023-10-31T06:42:10;26.80;;;13.60;;
34711;SDS011;20941;42.408;25.634;2023-10-31T06:44:35;39.90;;;13.48;;
34711;SDS011;20941;42.408;25.634;2023-10-31T06:47:04;31.77;;;10.90;;
34711;SDS011;20941;42.408;25.634;2023-10-31T06:49:29;29.35;;;11.80;;
34711;SDS011;20941;42.408;25.634;2023-10-31T06:51:54;24.75;;;11.32;;
34711;SDS011;20941;42.408;25.634;2023-10-31T06:54:20;27.75;;;11.65;;
34711;SDS011;20941;42.408;25.634;2023-10-31T06:56:46;27.15;;;10.73;;
34711;SDS011;20941;42.408;25.634;2023-10-31T06:59:11;32.97;;;12.95;;
34711;SDS011;20941;42.408;25.634;2023-10-31T07:01:37;30.83;;;12.55;;
34711;SDS011;20941;42.408;25.634;2023-10-31T07:04:02;30.50;;;13.00;;
34711;SDS011;20941;42.408;25.634;2023-10-31T07:06:28;30.70;;;13.13;;
34711;SDS011;20941;42.408;25.634;2023-10-31T07:08:53;25.70;;;12.32;;
34711;SDS011;20941;42.408;25.634;2023-10-31T07:11:19;26.38;;;11.65;;
34711;SDS011;20941;42.408;25.634;2023-10-31T07:13:44;28.70;;;11.80;;
34711;SDS011;20941;42.408;25.634;2023-10-31T07:16:10;24.00;;;11.90;;
34711;SDS011;20941;42.408;25.634;2023-10-31T07:18:35;27.50;;;10.98;;
34711;SDS011;20941;42.408;25.634;2023-10-31T07:21:00;24.67;;;11.40;;
34711;SDS011;20941;42.408;25.634;2023-10-31T07:23:26;25.80;;;10.75;;
34711;SDS011;20941;42.408;25.634;2023-10-31T07:25:51;22.17;;;11.00;;
34711;SDS011;20941;42.408;25.634;2023-10-31T07:28:16;26.10;;;11.27;;
34711;SDS011;20941;42.408;25.634;2023-10-31T07:30:42;24.58;;;9.88;;
34711;SDS011;20941;42.408;25.634;2023-10-31T07:33:08;18.35;;;9.73;;
34711;SDS011;20941;42.408;25.634;2023-10-31T07:35:33;17.55;;;9.20;;
34711;SDS011;20941;42.408;25.634;2023-10-31T07:37:58;20.95;;;10.75;;
34711;SDS011;20941;42.408;25.634;2023-10-31T07:40:24;29.30;;;11.27;;
34711;SDS011;20941;42.408;25.634;2023-10-31T07:42:49;24.33;;;11.93;;
34711;SDS011;20941;42.408;25.634;2023-10-31T07:45:14;22.77;;;9.32;;
34711;SDS011;20941;42.408;25.634;2023-10-31T07:47:40;17.17;;;8.80;;
34711;SDS011;20941;42.408;25.634;2023-10-31T07:50:05;18.77;;;9.18;;
34711;SDS011;20941;42.408;25.634;2023-10-31T07:52:31;15.07;;;8.95;;
34711;SDS011;20941;42.408;25.634;2023-10-31T07:54:56;24.05;;;8.88;;
34711;SDS011;20941;42.408;25.634;2023-10-31T07:57:21;15.25;;;8.65;;
34711;SDS011;20941;42.408;25.634;2023-10-31T07:59:48;15.73;;;8.07;;
34711;SDS011;20941;42.408;25.634;2023-10-31T08:02:13;14.00;;;8.20;;
34711;SDS011;20941;42.408;25.634;2023-10-31T08:04:38;18.75;;;7.53;;
34711;SDS011;20941;42.408;25.634;2023-10-31T08:07:04;19.75;;;9.27;;
34711;SDS011;20941;42.408;25.634;2023-10-31T08:09:29;19.73;;;8.60;;
34711;SDS011;20941;42.408;25.634;2023-10-31T08:11:55;16.40;;;7.90;;
34711;SDS011;20941;42.408;25.634;2023-10-31T08:14:20;15.13;;;7.13;;
34711;SDS011;20941;42.408;25.634;2023-10-31T08:16:47;18.55;;;7.65;;
34711;SDS011;20941;42.408;25.634;2023-10-31T08:19:12;15.93;;;6.85;;
34711;SDS011;20941;42.408;25.634;2023-10-31T08:21:38;12.23;;;6.35;;
34711;SDS011;20941;42.408;25.634;2023-10-31T08:24:03;18.05;;;6.78;;
34711;SDS011;20941;42.408;25.634;2023-10-31T08:26:29;17.08;;;6.90;;
34711;SDS011;20941;42.408;25.634;2023-10-31T08:28:55;13.43;;;5.88;;
34711;SDS011;20941;42.408;25.634;2023-10-31T08:31:20;11.50;;;6.47;;
34711;SDS011;20941;42.408;25.634;2023-10-31T08:33:45;13.68;;;6.13;;
34711;SDS011;20941;42.408;25.634;2023-10-31T08:36:11;12.68;;;6.55;;
34711;SDS011;20941;42.408;25.634;2023-10-31T08:38:36;19.73;;;6.00;;
34711;SDS011;20941;42.408;25.634;2023-10-31T08:41:02;17.63;;;7.40;;
34711;SDS011;20941;42.408;25.634;2023-10-31T08:43:27;16.58;;;6.78;;
34711;SDS011;20941;42.408;25.634;2023-10-31T08:45:53;18.58;;;7.35;;
34711;SDS011;20941;42.408;25.634;2023-10-31T08:48:18;14.20;;;6.88;;
34711;SDS011;20941;42.408;25.634;2023-10-31T08:50:43;19.20;;;6.45;;
34711;SDS011;20941;42.408;25.634;2023-10-31T08:53:09;10.30;;;6.57;;
34711;SDS011;20941;42.408;25.634;2023-10-31T08:55:35;12.35;;;6.50;;
34711;SDS011;20941;42.408;25.634;2023-10-31T08:58:00;13.88;;;7.00;;
34711;SDS011;20941;42.408;25.634;2023-10-31T09:00:26;15.10;;;6.82;;
34711;SDS011;20941;42.408;25.634;2023-10-31T09:02:53;12.68;;;7.22;;
34711;SDS011;20941;42.408;25.634;2023-10-31T09:05:18;13.90;;;6.40;;
34711;SDS011;20941;42.408;25.634;2023-10-31T09:07:44;12.52;;;6.85;;
34711;SDS011;20941;42.408;25.634;2023-10-31T09:10:11;17.10;;;6.97;;
34711;SDS011;20941;42.408;25.634;2023-10-31T09:12:36;18.13;;;7.82;;
34711;SDS011;20941;42.408;25.634;2023-10-31T09:15:02;12.63;;;7.63;;
34711;SDS011;20941;42.408;25.634;2023-10-31T09:17:27;13.93;;;6.50;;
34711;SDS011;20941;42.408;25.634;2023-10-31T09:19:52;12.88;;;7.03;;
34711;SDS011;20941;42.408;25.634;2023-10-31T09:22:19;12.32;;;6.72;;
34711;SDS011;20941;42.408;25.634;2023-10-31T09:24:44;12.85;;;7.20;;
34711;SDS011;20941;42.408;25.634;2023-10-31T09:27:09;16.20;;;6.72;;
34711;SDS011;20941;42.408;25.634;2023-10-31T09:29:35;20.38;;;7.03;;
34711;SDS011;20941;42.408;25.634;2023-10-31T09:32:01;18.33;;;8.23;;
34711;SDS011;20941;42.408;25.634;2023-10-31T09:34:26;19.17;;;7.50;;
34711;SDS011;20941;42.408;25.634;2023-10-31T09:36:51;14.43;;;7.50;;
34711;SDS011;20941;42.408;25.634;2023-10-31T09:39:17;17.80;;;7.95;;
34711;SDS011;20941;42.408;25.634;2023-10-31T09:41:42;14.20;;;7.65;;
34711;SDS011;20941;42.408;25.634;2023-10-31T09:44:08;17.60;;;7.38;;
34711;SDS011;20941;42.408;25.634;2023-10-31T09:46:33;11.93;;;7.53;;
34711;SDS011;20941;42.408;25.634;2023-10-31T09:49:00;13.43;;;7.07;;
34711;SDS011;20941;42.408;25.634;2023-10-31T09:51:25;15.38;;;7.63;;
34711;SDS011;20941;42.408;25.634;2023-10-31T09:53:51;16.48;;;8.52;;
34711;SDS011;20941;42.408;25.634;2023-10-31T09:56:19;12.90;;;7.18;;
34711;SDS011;20941;42.408;25.634;2023-10-31T09:58:44;14.00;;;7.68;;
34711;SDS011;20941;42.408;25.634;2023-10-31T10:01:10;13.48;;;6.95;;
34711;SDS011;20941;42.408;25.634;2023-10-31T10:03:36;24.95;;;7.90;;
34711;SDS011;20941;42.408;25.634;2023-10-31T10:06:02;17.80;;;7.65;;
34711;SDS011;20941;42.408;25.634;2023-10-31T10:08:27;14.32;;;7.60;;
34711;SDS011;20941;42.408;25.634;2023-10-31T10:10:52;16.48;;;7.60;;
34711;SDS011;20941;42.408;25.634;2023-10-31T10:13:18;15.18;;;7.35;;
34711;SDS011;20941;42.408;25.634;2023-10-31T10:15:45;13.60;;;6.28;;
34711;SDS011;20941;42.408;25.634;2023-10-31T10:18:17;9.82;;;6.50;;
34711;SDS011;20941;42.408;25.634;2023-10-31T10:20:58;13.30;;;7.00;;
34711;SDS011;20941;42.408;25.634;2023-10-31T10:23:24;14.68;;;6.60;;
34711;SDS011;20941;42.408;25.634;2023-10-31T10:25:51;16.02;;;6.07;;
34711;SDS011;20941;42.408;25.634;2023-10-31T10:28:16;12.48;;;6.43;;
34711;SDS011;20941;42.408;25.634;2023-10-31T10:30:44;17.33;;;7.00;;
34711;SDS011;20941;42.408;25.634;2023-10-31T10:33:10;14.43;;;6.70;;
34711;SDS011;20941;42.408;25.634;2023-10-31T10:35:35;13.95;;;6.70;;
34711;SDS011;20941;42.408;25.634;2023-10-31T10:38:00;14.30;;;7.57;;
34711;SDS011;20941;42.408;25.634;2023-10-31T10:40:27;21.38;;;7.25;;
34711;SDS011;20941;42.408;25.634;2023-10-31T10:42:52;15.15;;;7.47;;
34711;SDS011;20941;42.408;25.634;2023-10-31T10:45:22;14.18;;;7.75;;
34711;SDS011;20941;42.408;25.634;2023-10-31T10:47:49;14.80;;;7.40;;
34711;SDS011;20941;42.408;25.634;2023-10-31T10:50:15;17.35;;;7.97;;
34711;SDS011;20941;42.408;25.634;2023-10-31T10:52:44;16.40;;;7.00;;
34711;SDS011;20941;42.408;25.634;2023-10-31T10:55:12;16.27;;;7.15;;
34711;SDS011;20941;42.408;25.634;2023-10-31T11:00:06;15.60;;;8.05;;
34711;SDS011;20941;42.408;25.634;2023-10-31T11:02:38;18.08;;;8.18;;
34711;SDS011;20941;42.408;25.634;2023-10-31T11:05:07;18.73;;;9.63;;
34711;SDS011;20941;42.408;25.634;2023-10-31T11:07:33;23.95;;;9.75;;
34711;SDS011;20941;42.408;25.634;2023-10-31T11:09:59;15.75;;;8.32;;
34711;SDS011;20941;42.408;25.634;2023-10-31T11:12:27;17.88;;;8.90;;
34711;SDS011;20941;42.408;25.634;2023-10-31T11:14:54;26.08;;;9.60;;
34711;SDS011;20941;42.408;25.634;2023-10-31T11:19:48;20.83;;;8.68;;
34711;SDS011;20941;42.408;25.634;2023-10-31T11:22:14;18.65;;;9.15;;
34711;SDS011;20941;42.408;25.634;2023-10-31T11:24:42;18.63;;;8.60;;
34711;SDS011;20941;42.408;25.634;2023-10-31T11:27:07;19.38;;;9.07;;
34711;SDS011;20941;42.408;25.634;2023-10-31T11:29:33;17.90;;;8.70;;
34711;SDS011;20941;42.408;25.634;2023-10-31T11:31:59;23.10;;;8.63;;
34711;SDS011;20941;42.408;25.634;2023-10-31T11:34:28;13.68;;;7.35;;
34711;SDS011;20941;42.408;25.634;2023-10-31T11:36:53;20.98;;;8.23;;
34711;SDS011;20941;42.408;25.634;2023-10-31T11:39:20;17.75;;;7.13;;
34711;SDS011;20941;42.408;25.634;2023-10-31T11:41:50;23.90;;;7.13;;
34711;SDS011;20941;42.408;25.634;2023-10-31T11:44:16;23.63;;;7.45;;
34711;SDS011;20941;42.408;25.634;2023-10-31T11:46:42;17.30;;;6.70;;
34711;SDS011;20941;42.408;25.634;2023-10-31T11:49:07;15.65;;;6.30;;
34711;SDS011;20941;42.408;25.634;2023-10-31T11:51:34;13.40;;;6.45;;
34711;SDS011;20941;42.408;25.634;2023-10-31T11:54:01;18.85;;;7.85;;
34711;SDS011;20941;42.408;25.634;2023-10-31T11:56:26;15.25;;;6.95;;
34711;SDS011;20941;42.408;25.634;2023-10-31T11:58:58;14.25;;;7.30;;
34711;SDS011;20941;42.408;25.634;2023-10-31T12:01:25;15.18;;;6.32;;
34711;SDS011;20941;42.408;25.634;2023-10-31T12:03:50;9.80;;;5.90;;
34711;SDS011;20941;42.408;25.634;2023-10-31T12:06:16;14.23;;;6.10;;
34711;SDS011;20941;42.408;25.634;2023-10-31T12:08:43;18.42;;;6.70;;
34711;SDS011;20941;42.408;25.634;2023-10-31T12:11:17;12.40;;;5.88;;
34711;SDS011;20941;42.408;25.634;2023-10-31T12:13:52;14.40;;;5.40;;
34711;SDS011;20941;42.408;25.634;2023-10-31T12:16:18;12.88;;;5.55;;
34711;SDS011;20941;42.408;25.634;2023-10-31T12:18:43;15.32;;;5.88;;
34711;SDS011;20941;42.408;25.634;2023-10-31T12:21:09;16.73;;;6.43;;
34711;SDS011;20941;42.408;25.634;2023-10-31T12:23:37;17.02;;;5.60;;
34711;SDS011;20941;42.408;25.634;2023-10-31T12:26:02;15.68;;;6.32;;
34711;SDS011;20941;42.408;25.634;2023-10-31T12:28:28;16.83;;;5.95;;
34711;SDS011;20941;42.408;25.634;2023-10-31T12:30:54;12.80;;;4.97;;
34711;SDS011;20941;42.408;25.634;2023-10-31T12:33:19;13.20;;;5.25;;
34711;SDS011;20941;42.408;25.634;2023-10-31T12:35:45;14.73;;;5.40;;
34711;SDS011;20941;42.408;25.634;2023-10-31T12:38:11;14.57;;;5.70;;
34711;SDS011;20941;42.408;25.634;2023-10-31T12:40:37;17.35;;;6.00;;
34711;SDS011;20941;42.408;25.634;2023-10-31T12:43:03;17.92;;;6.30;;
34711;SDS011;20941;42.408;25.634;2023-10-31T12:45:28;20.25;;;5.47;;
34711;SDS011;20941;42.408;25.634;2023-10-31T12:48:01;11.60;;;5.70;;
34711;SDS011;20941;42.408;25.634;2023-10-31T12:50:27;13.15;;;5.85;;
34711;SDS011;20941;42.408;25.634;2023-10-31T12:52:53;14.57;;;5.97;;
34711;SDS011;20941;42.408;25.634;2023-10-31T12:55:22;9.85;;;4.75;;
34711;SDS011;20941;42.408;25.634;2023-10-31T12:57:47;12.45;;;5.15;;
34711;SDS011;20941;42.408;25.634;2023-10-31T13:00:14;10.45;;;5.18;;
34711;SDS011;20941;42.408;25.634;2023-10-31T13:02:41;11.68;;;4.85;;
34711;SDS011;20941;42.408;25.634;2023-10-31T13:05:13;13.23;;;4.35;;
34711;SDS011;20941;42.408;25.634;2023-10-31T13:07:39;11.48;;;5.13;;
34711;SDS011;20941;42.408;25.634;2023-10-31T13:10:06;8.38;;;5.03;;
34711;SDS011;20941;42.408;25.634;2023-10-31T13:12:32;15.75;;;5.18;;
34711;SDS011;20941;42.408;25.634;2023-10-31T13:14:58;11.75;;;5.50;;
34711;SDS011;20941;42.408;25.634;2023-10-31T13:17:23;8.93;;;4.78;;
34711;SDS011;20941;42.408;25.634;2023-10-31T13:19:48;8.60;;;5.10;;
34711;SDS011;20941;42.408;25.634;2023-10-31T13:22:14;13.05;;;5.40;;
34711;SDS011;20941;42.408;25.634;2023-10-31T13:24:39;11.57;;;4.82;;
34711;SDS011;20941;42.408;25.634;2023-10-31T13:27:05;8.88;;;4.00;;
34711;SDS011;20941;42.408;25.634;2023-10-31T13:29:31;7.43;;;4.50;;
34711;SDS011;20941;42.408;25.634;2023-10-31T13:31:56;7.05;;;4.10;;
34711;SDS011;20941;42.408;25.634;2023-10-31T13:34:22;9.15;;;3.95;;
34711;SDS011;20941;42.408;25.634;2023-10-31T13:36:48;10.38;;;4.68;;
34711;SDS011;20941;42.408;25.634;2023-10-31T13:39:13;10.02;;;4.80;;
34711;SDS011;20941;42.408;25.634;2023-10-31T13:41:38;12.23;;;4.93;;
34711;SDS011;20941;42.408;25.634;2023-10-31T13:44:04;15.98;;;5.47;;
34711;SDS011;20941;42.408;25.634;2023-10-31T13:46:29;11.00;;;5.80;;
34711;SDS011;20941;42.408;25.634;2023-10-31T13:48:54;13.35;;;6.18;;
34711;SDS011;20941;42.408;25.634;2023-10-31T13:51:20;17.95;;;6.75;;
34711;SDS011;20941;42.408;25.634;2023-10-31T13:53:45;19.42;;;6.80;;
34711;SDS011;20941;42.408;25.634;2023-10-31T13:56:10;17.73;;;7.18;;
34711;SDS011;20941;42.408;25.634;2023-10-31T13:58:36;18.77;;;6.82;;
34711;SDS011;20941;42.408;25.634;2023-10-31T14:01:01;15.52;;;7.80;;
34711;SDS011;20941;42.408;25.634;2023-10-31T14:03:26;17.58;;;8.02;;
34711;SDS011;20941;42.408;25.634;2023-10-31T14:05:52;13.75;;;7.07;;
34711;SDS011;20941;42.408;25.634;2023-10-31T14:08:18;16.23;;;6.35;;
34711;SDS011;20941;42.408;25.634;2023-10-31T14:10:44;13.52;;;6.32;;
34711;SDS011;20941;42.408;25.634;2023-10-31T14:13:11;11.80;;;5.30;;
34711;SDS011;20941;42.408;25.634;2023-10-31T14:15:36;13.90;;;5.93;;